sensor_id;sensor_type;location;lat;lon;timestamp;P1;durP1;ratioP1;P2;durP2;ratioP2
29380;SDS011;16364;52.490;13.326;2023-02-13T00:01:55;34.43;;;13.87;;
29380;SDS011;16364;52.490;13.326;2023-02-13T00:04:21;32.63;;;14.50;;
29380;SDS011;16364;52.490;13.326;2023-02-13T00:06:46;34.37;;;14.00;;
29380;SDS011;16364;52.490;13.326;2023-02-13T00:09:14;30.67;;;13.37;;
29380;SDS011;16364;52.490;13.326;2023-02-13T00:11:39;28.40;;;13.37;;
29380;SDS011;16364;52.490;13.326;2023-02-13T00:14:04;27.13;;;12.83;;
29380;SDS011;16364;52.490;13.326;2023-02-13T00:16:30;28.80;;;12.37;;
29380;SDS011;16364;52.490;13.326;2023-02-13T00:18:55;24.30;;;11.87;;
29380;SDS011;16364;52.490;13.326;2023-02-13T00:21:20;22.27;;;10.27;;
29380;SDS011;16364;52.490;13.326;2023-02-13T00:23:45;26.53;;;10.50;;
29380;SDS011;16364;52.490;13.326;2023-02-13T00:26:14;17.00;;;9.03;;
29380;SDS011;16364;52.490;13.326;2023-02-13T00:28:40;23.37;;;9.80;;
29380;SDS011;16364;52.490;13.326;2023-02-13T00:31:06;21.17;;;9.20;;
29380;SDS011;16364;52.490;13.326;2023-02-13T00:33:32;17.20;;;7.73;;
29380;SDS011;16364;52.490;13.326;2023-02-13T00:36:07;15.87;;;7.50;;
29380;SDS011;16364;52.490;13.326;2023-02-13T00:38:33;10.90;;;5.70;;
29380;SDS011;16364;52.490;13.326;2023-02-13T00:40:58;12.47;;;6.37;;
29380;SDS011;16364;52.490;13.326;2023-02-13T00:43:24;14.20;;;6.30;;
29380;SDS011;16364;52.490;13.326;2023-02-13T00:45:49;9.83;;;4.90;;
29380;SDS011;16364;52.490;13.326;2023-02-13T00:48:14;12.23;;;6.40;;
29380;SDS011;16364;52.490;13.326;2023-02-13T00:50:39;7.50;;;3.67;;
29380;SDS011;16364;52.490;13.326;2023-02-13T00:53:04;6.83;;;3.50;;
29380;SDS011;16364;52.490;13.326;2023-02-13T00:55:30;7.10;;;2.97;;
29380;SDS011;16364;52.490;13.326;2023-02-13T00:57:55;5.77;;;3.10;;
29380;SDS011;16364;52.490;13.326;2023-02-13T01:00:20;7.60;;;3.53;;
29380;SDS011;16364;52.490;13.326;2023-02-13T01:02:45;4.77;;;2.60;;
29380;SDS011;16364;52.490;13.326;2023-02-13T01:05:11;4.80;;;2.37;;
29380;SDS011;16364;52.490;13.326;2023-02-13T01:07:37;2.23;;;1.83;;
29380;SDS011;16364;52.490;13.326;2023-02-13T01:10:02;4.23;;;2.57;;
29380;SDS011;16364;52.490;13.326;2023-02-13T01:12:27;3.10;;;2.17;;
29380;SDS011;16364;52.490;13.326;2023-02-13T01:14:53;4.90;;;2.13;;
29380;SDS011;16364;52.490;13.326;2023-02-13T01:17:18;4.20;;;2.40;;
29380;SDS011;16364;52.490;13.326;2023-02-13T01:19:43;2.63;;;2.00;;
29380;SDS011;16364;52.490;13.326;2023-02-13T01:22:08;3.77;;;1.97;;
29380;SDS011;16364;52.490;13.326;2023-02-13T01:24:34;3.07;;;2.13;;
29380;SDS011;16364;52.490;13.326;2023-02-13T01:26:59;3.50;;;2.13;;
29380;SDS011;16364;52.490;13.326;2023-02-13T01:29:26;2.13;;;1.93;;
29380;SDS011;16364;52.490;13.326;2023-02-13T01:31:51;3.87;;;2.03;;
29380;SDS011;16364;52.490;13.326;2023-02-13T01:34:17;2.80;;;1.50;;
29380;SDS011;16364;52.490;13.326;2023-02-13T01:36:42;2.33;;;1.57;;
29380;SDS011;16364;52.490;13.326;2023-02-13T01:39:09;3.97;;;1.73;;
29380;SDS011;16364;52.490;13.326;2023-02-13T01:41:35;2.93;;;2.00;;
29380;SDS011;16364;52.490;13.326;2023-02-13T01:44:00;4.20;;;2.43;;
29380;SDS011;16364;52.490;13.326;2023-02-13T01:46:27;1.90;;;1.63;;
29380;SDS011;16364;52.490;13.326;2023-02-13T01:48:55;2.93;;;1.70;;
29380;SDS011;16364;52.490;13.326;2023-02-13T01:51:26;2.27;;;2.07;;
29380;SDS011;16364;52.490;13.326;2023-02-13T01:53:59;3.87;;;2.40;;
29380;SDS011;16364;52.490;13.326;2023-02-13T01:56:27;8.80;;;2.40;;
29380;SDS011;16364;52.490;13.326;2023-02-13T01:58:55;3.10;;;2.20;;
29380;SDS011;16364;52.490;13.326;2023-02-13T02:01:21;3.30;;;1.90;;
29380;SDS011;16364;52.490;13.326;2023-02-13T02:03:48;2.97;;;2.40;;
29380;SDS011;16364;52.490;13.326;2023-02-13T02:06:20;3.90;;;2.30;;
29380;SDS011;16364;52.490;13.326;2023-02-13T02:09:05;3.70;;;2.10;;
29380;SDS011;16364;52.490;13.326;2023-02-13T02:11:34;6.47;;;2.70;;
29380;SDS011;16364;52.490;13.326;2023-02-13T02:14:01;6.47;;;3.30;;
29380;SDS011;16364;52.490;13.326;2023-02-13T02:16:26;4.77;;;2.73;;
29380;SDS011;16364;52.490;13.326;2023-02-13T02:18:53;4.00;;;2.80;;
29380;SDS011;16364;52.490;13.326;2023-02-13T02:42:25;6.37;;;3.20;;
29380;SDS011;16364;52.490;13.326;2023-02-13T02:45:36;5.60;;;2.73;;
29380;SDS011;16364;52.490;13.326;2023-02-13T02:47:43;5.20;;;3.20;;
29380;SDS011;16364;52.490;13.326;2023-02-13T02:50:37;6.50;;;3.47;;
29380;SDS011;16364;52.490;13.326;2023-02-13T02:53:15;7.43;;;3.90;;
29380;SDS011;16364;52.490;13.326;2023-02-13T02:55:54;6.40;;;3.90;;
29380;SDS011;16364;52.490;13.326;2023-02-13T02:58:37;10.10;;;4.73;;
29380;SDS011;16364;52.490;13.326;2023-02-13T03:01:23;7.50;;;5.00;;
29380;SDS011;16364;52.490;13.326;2023-02-13T03:04:15;9.53;;;5.00;;
29380;SDS011;16364;52.490;13.326;2023-02-13T03:07:02;6.63;;;4.30;;
29380;SDS011;16364;52.490;13.326;2023-02-13T03:09:30;8.10;;;4.80;;
29380;SDS011;16364;52.490;13.326;2023-02-13T03:12:16;9.13;;;4.60;;
29380;SDS011;16364;52.490;13.326;2023-02-13T03:15:02;6.40;;;4.30;;
29380;SDS011;16364;52.490;13.326;2023-02-13T03:17:27;12.40;;;5.10;;
29380;SDS011;16364;52.490;13.326;2023-02-13T03:20:13;7.40;;;4.90;;
29380;SDS011;16364;52.490;13.326;2023-02-13T03:23:05;8.47;;;5.40;;
29380;SDS011;16364;52.490;13.326;2023-02-13T03:25:43;7.80;;;4.90;;
29380;SDS011;16364;52.490;13.326;2023-02-13T03:28:33;7.83;;;5.50;;
29380;SDS011;16364;52.490;13.326;2023-02-13T03:33:57;10.90;;;6.30;;
29380;SDS011;16364;52.490;13.326;2023-02-13T03:36:32;11.53;;;6.80;;
29380;SDS011;16364;52.490;13.326;2023-02-13T03:39:28;13.30;;;6.73;;
29380;SDS011;16364;52.490;13.326;2023-02-13T03:42:01;9.97;;;5.60;;
29380;SDS011;16364;52.490;13.326;2023-02-13T03:44:36;13.17;;;7.50;;
29380;SDS011;16364;52.490;13.326;2023-02-13T03:47:02;11.47;;;7.33;;
29380;SDS011;16364;52.490;13.326;2023-02-13T03:54:45;16.10;;;7.57;;
29380;SDS011;16364;52.490;13.326;2023-02-13T03:57:30;16.03;;;7.03;;
29380;SDS011;16364;52.490;13.326;2023-02-13T04:00:15;18.47;;;8.93;;
29380;SDS011;16364;52.490;13.326;2023-02-13T04:03:23;16.90;;;7.50;;
29380;SDS011;16364;52.490;13.326;2023-02-13T04:05:29;14.20;;;7.60;;
29380;SDS011;16364;52.490;13.326;2023-02-13T04:07:57;14.20;;;8.20;;
29380;SDS011;16364;52.490;13.326;2023-02-13T04:10:22;15.90;;;8.80;;
29380;SDS011;16364;52.490;13.326;2023-02-13T04:12:55;16.33;;;9.03;;
29380;SDS011;16364;52.490;13.326;2023-02-13T04:15:36;15.43;;;9.30;;
29380;SDS011;16364;52.490;13.326;2023-02-13T04:18:06;15.40;;;7.87;;
29380;SDS011;16364;52.490;13.326;2023-02-13T04:20:32;15.67;;;9.13;;
29380;SDS011;16364;52.490;13.326;2023-02-13T04:23:02;13.77;;;8.00;;
29380;SDS011;16364;52.490;13.326;2023-02-13T04:25:28;14.87;;;8.83;;
29380;SDS011;16364;52.490;13.326;2023-02-13T04:27:53;15.80;;;7.70;;
29380;SDS011;16364;52.490;13.326;2023-02-13T04:30:18;17.37;;;9.40;;
29380;SDS011;16364;52.490;13.326;2023-02-13T04:32:43;13.20;;;8.37;;
29380;SDS011;16364;52.490;13.326;2023-02-13T04:35:09;15.00;;;8.23;;
29380;SDS011;16364;52.490;13.326;2023-02-13T04:37:35;16.57;;;8.67;;
29380;SDS011;16364;52.490;13.326;2023-02-13T04:40:00;12.90;;;7.40;;
29380;SDS011;16364;52.490;13.326;2023-02-13T04:42:26;13.07;;;8.37;;
29380;SDS011;16364;52.490;13.326;2023-02-13T04:44:51;13.77;;;8.13;;
29380;SDS011;16364;52.490;13.326;2023-02-13T04:47:16;12.90;;;8.87;;
29380;SDS011;16364;52.490;13.326;2023-02-13T04:49:41;11.27;;;6.10;;
29380;SDS011;16364;52.490;13.326;2023-02-13T04:52:07;12.83;;;7.00;;
29380;SDS011;16364;52.490;13.326;2023-02-13T04:54:32;7.53;;;6.30;;
29380;SDS011;16364;52.490;13.326;2023-02-13T04:56:57;10.37;;;6.37;;
29380;SDS011;16364;52.490;13.326;2023-02-13T04:59:22;11.87;;;6.40;;
29380;SDS011;16364;52.490;13.326;2023-02-13T05:01:48;10.30;;;5.87;;
29380;SDS011;16364;52.490;13.326;2023-02-13T05:04:13;8.50;;;5.50;;
29380;SDS011;16364;52.490;13.326;2023-02-13T05:06:40;12.10;;;6.30;;
29380;SDS011;16364;52.490;13.326;2023-02-13T05:09:05;10.17;;;6.60;;
29380;SDS011;16364;52.490;13.326;2023-02-13T05:11:31;10.77;;;5.93;;
29380;SDS011;16364;52.490;13.326;2023-02-13T05:13:56;14.00;;;6.20;;
29380;SDS011;16364;52.490;13.326;2023-02-13T05:16:21;7.80;;;5.90;;
29380;SDS011;16364;52.490;13.326;2023-02-13T05:18:46;8.70;;;5.10;;
29380;SDS011;16364;52.490;13.326;2023-02-13T05:21:11;10.00;;;5.73;;
29380;SDS011;16364;52.490;13.326;2023-02-13T05:23:55;9.67;;;6.50;;
29380;SDS011;16364;52.490;13.326;2023-02-13T05:26:20;8.60;;;5.60;;
29380;SDS011;16364;52.490;13.326;2023-02-13T05:28:45;7.53;;;4.83;;
29380;SDS011;16364;52.490;13.326;2023-02-13T05:31:29;8.13;;;5.30;;
29380;SDS011;16364;52.490;13.326;2023-02-13T05:33:55;7.70;;;4.90;;
29380;SDS011;16364;52.490;13.326;2023-02-13T05:36:20;7.20;;;5.03;;
29380;SDS011;16364;52.490;13.326;2023-02-13T05:38:45;10.80;;;4.73;;
29380;SDS011;16364;52.490;13.326;2023-02-13T05:41:10;9.87;;;6.30;;
29380;SDS011;16364;52.490;13.326;2023-02-13T05:43:37;7.80;;;4.97;;
29380;SDS011;16364;52.490;13.326;2023-02-13T05:46:06;6.97;;;6.00;;
29380;SDS011;16364;52.490;13.326;2023-02-13T05:48:32;6.57;;;4.93;;
29380;SDS011;16364;52.490;13.326;2023-02-13T05:50:57;7.40;;;5.33;;
29380;SDS011;16364;52.490;13.326;2023-02-13T05:53:23;6.17;;;4.60;;
29380;SDS011;16364;52.490;13.326;2023-02-13T05:55:48;7.80;;;4.90;;
29380;SDS011;16364;52.490;13.326;2023-02-13T05:58:16;7.00;;;4.67;;
29380;SDS011;16364;52.490;13.326;2023-02-13T06:00:41;5.20;;;4.60;;
29380;SDS011;16364;52.490;13.326;2023-02-13T06:03:06;7.67;;;5.90;;
29380;SDS011;16364;52.490;13.326;2023-02-13T06:05:31;5.57;;;4.73;;
29380;SDS011;16364;52.490;13.326;2023-02-13T06:07:57;6.63;;;4.80;;
29380;SDS011;16364;52.490;13.326;2023-02-13T06:10:22;7.63;;;5.80;;
29380;SDS011;16364;52.490;13.326;2023-02-13T06:12:47;4.40;;;3.93;;
29380;SDS011;16364;52.490;13.326;2023-02-13T06:15:12;5.47;;;4.80;;
29380;SDS011;16364;52.490;13.326;2023-02-13T06:17:37;4.70;;;4.00;;
29380;SDS011;16364;52.490;13.326;2023-02-13T06:20:03;5.03;;;4.53;;
29380;SDS011;16364;52.490;13.326;2023-02-13T06:22:28;6.27;;;5.30;;
29380;SDS011;16364;52.490;13.326;2023-02-13T06:24:53;9.47;;;6.63;;
29380;SDS011;16364;52.490;13.326;2023-02-13T06:27:19;6.13;;;4.60;;
29380;SDS011;16364;52.490;13.326;2023-02-13T06:29:44;8.73;;;5.77;;
29380;SDS011;16364;52.490;13.326;2023-02-13T06:32:09;7.63;;;5.20;;
29380;SDS011;16364;52.490;13.326;2023-02-13T06:34:34;5.63;;;4.93;;
29380;SDS011;16364;52.490;13.326;2023-02-13T06:37:00;7.07;;;5.03;;
29380;SDS011;16364;52.490;13.326;2023-02-13T06:39:25;6.17;;;5.57;;
29380;SDS011;16364;52.490;13.326;2023-02-13T06:41:50;7.33;;;5.37;;
29380;SDS011;16364;52.490;13.326;2023-02-13T06:44:15;7.93;;;5.23;;
29380;SDS011;16364;52.490;13.326;2023-02-13T06:46:40;8.47;;;5.97;;
29380;SDS011;16364;52.490;13.326;2023-02-13T06:49:06;8.57;;;5.20;;
29380;SDS011;16364;52.490;13.326;2023-02-13T06:51:31;5.33;;;4.83;;
29380;SDS011;16364;52.490;13.326;2023-02-13T06:53:56;7.10;;;5.30;;
29380;SDS011;16364;52.490;13.326;2023-02-13T06:56:21;8.30;;;5.97;;
29380;SDS011;16364;52.490;13.326;2023-02-13T06:58:47;7.47;;;5.37;;
29380;SDS011;16364;52.490;13.326;2023-02-13T07:01:12;7.20;;;5.20;;
29380;SDS011;16364;52.490;13.326;2023-02-13T07:03:37;8.47;;;5.07;;
29380;SDS011;16364;52.490;13.326;2023-02-13T07:06:02;6.90;;;5.37;;
29380;SDS011;16364;52.490;13.326;2023-02-13T07:08:27;8.27;;;6.37;;
29380;SDS011;16364;52.490;13.326;2023-02-13T07:10:53;8.60;;;5.17;;
29380;SDS011;16364;52.490;13.326;2023-02-13T07:13:18;9.40;;;6.40;;
29380;SDS011;16364;52.490;13.326;2023-02-13T07:15:43;9.43;;;5.00;;
29380;SDS011;16364;52.490;13.326;2023-02-13T07:18:09;9.40;;;5.23;;
29380;SDS011;16364;52.490;13.326;2023-02-13T07:20:34;8.83;;;6.33;;
29380;SDS011;16364;52.490;13.326;2023-02-13T07:23:00;10.90;;;5.90;;
29380;SDS011;16364;52.490;13.326;2023-02-13T07:25:26;7.87;;;5.37;;
29380;SDS011;16364;52.490;13.326;2023-02-13T07:27:51;7.60;;;5.57;;
29380;SDS011;16364;52.490;13.326;2023-02-13T07:30:16;8.70;;;6.17;;
29380;SDS011;16364;52.490;13.326;2023-02-13T07:32:42;8.70;;;6.07;;
29380;SDS011;16364;52.490;13.326;2023-02-13T07:35:07;8.27;;;5.13;;
29380;SDS011;16364;52.490;13.326;2023-02-13T07:37:32;9.37;;;6.30;;
29380;SDS011;16364;52.490;13.326;2023-02-13T07:39:57;9.13;;;5.10;;
29380;SDS011;16364;52.490;13.326;2023-02-13T07:42:23;9.90;;;6.83;;
29380;SDS011;16364;52.490;13.326;2023-02-13T07:44:48;5.93;;;4.60;;
29380;SDS011;16364;52.490;13.326;2023-02-13T07:47:13;9.17;;;5.43;;
29380;SDS011;16364;52.490;13.326;2023-02-13T07:49:38;10.77;;;5.93;;
29380;SDS011;16364;52.490;13.326;2023-02-13T07:52:04;6.70;;;5.07;;
29380;SDS011;16364;52.490;13.326;2023-02-13T07:54:29;7.70;;;4.60;;
29380;SDS011;16364;52.490;13.326;2023-02-13T07:56:55;15.00;;;6.30;;
29380;SDS011;16364;52.490;13.326;2023-02-13T07:59:20;8.90;;;5.90;;
29380;SDS011;16364;52.490;13.326;2023-02-13T08:01:45;10.13;;;5.57;;
29380;SDS011;16364;52.490;13.326;2023-02-13T08:04:10;7.60;;;6.03;;
29380;SDS011;16364;52.490;13.326;2023-02-13T08:06:37;8.50;;;5.33;;
29380;SDS011;16364;52.490;13.326;2023-02-13T08:09:02;9.60;;;5.80;;
29380;SDS011;16364;52.490;13.326;2023-02-13T08:11:46;8.90;;;5.50;;
29380;SDS011;16364;52.490;13.326;2023-02-13T08:14:19;7.63;;;6.20;;
29380;SDS011;16364;52.490;13.326;2023-02-13T08:16:44;8.03;;;6.57;;
29380;SDS011;16364;52.490;13.326;2023-02-13T08:19:09;8.53;;;6.17;;
29380;SDS011;16364;52.490;13.326;2023-02-13T08:21:34;8.37;;;6.17;;
29380;SDS011;16364;52.490;13.326;2023-02-13T08:24:02;10.47;;;6.87;;
29380;SDS011;16364;52.490;13.326;2023-02-13T08:26:29;9.83;;;6.20;;
29380;SDS011;16364;52.490;13.326;2023-02-13T08:28:54;7.40;;;4.80;;
29380;SDS011;16364;52.490;13.326;2023-02-13T08:31:20;7.47;;;5.47;;
29380;SDS011;16364;52.490;13.326;2023-02-13T08:33:45;6.33;;;5.67;;
29380;SDS011;16364;52.490;13.326;2023-02-13T08:36:10;7.30;;;5.97;;
29380;SDS011;16364;52.490;13.326;2023-02-13T08:38:35;6.83;;;5.07;;
29380;SDS011;16364;52.490;13.326;2023-02-13T08:41:00;7.87;;;5.90;;
29380;SDS011;16364;52.490;13.326;2023-02-13T08:43:26;10.53;;;5.80;;
29380;SDS011;16364;52.490;13.326;2023-02-13T08:45:51;8.80;;;5.83;;
29380;SDS011;16364;52.490;13.326;2023-02-13T08:48:16;7.63;;;4.70;;
29380;SDS011;16364;52.490;13.326;2023-02-13T08:50:41;8.87;;;4.40;;
29380;SDS011;16364;52.490;13.326;2023-02-13T08:53:06;5.87;;;4.47;;
29380;SDS011;16364;52.490;13.326;2023-02-13T08:55:32;8.73;;;5.77;;
29380;SDS011;16364;52.490;13.326;2023-02-13T08:58:00;11.90;;;5.20;;
29380;SDS011;16364;52.490;13.326;2023-02-13T09:00:26;7.07;;;5.63;;
29380;SDS011;16364;52.490;13.326;2023-02-13T09:02:51;6.70;;;4.97;;
29380;SDS011;16364;52.490;13.326;2023-02-13T09:05:17;7.83;;;5.87;;
29380;SDS011;16364;52.490;13.326;2023-02-13T09:07:42;8.77;;;5.47;;
29380;SDS011;16364;52.490;13.326;2023-02-13T09:10:08;8.60;;;6.17;;
29380;SDS011;16364;52.490;13.326;2023-02-13T09:12:33;8.20;;;4.80;;
29380;SDS011;16364;52.490;13.326;2023-02-13T09:14:58;10.20;;;4.83;;
29380;SDS011;16364;52.490;13.326;2023-02-13T09:17:23;10.43;;;5.80;;
29380;SDS011;16364;52.490;13.326;2023-02-13T09:19:49;7.93;;;4.93;;
29380;SDS011;16364;52.490;13.326;2023-02-13T09:22:14;10.53;;;5.77;;
29380;SDS011;16364;52.490;13.326;2023-02-13T09:24:41;8.60;;;6.07;;
29380;SDS011;16364;52.490;13.326;2023-02-13T09:27:06;10.87;;;6.00;;
29380;SDS011;16364;52.490;13.326;2023-02-13T09:29:32;10.87;;;6.97;;
29380;SDS011;16364;52.490;13.326;2023-02-13T09:31:58;19.50;;;7.30;;
29380;SDS011;16364;52.490;13.326;2023-02-13T09:34:23;10.10;;;6.33;;
29380;SDS011;16364;52.490;13.326;2023-02-13T09:36:51;9.80;;;6.00;;
29380;SDS011;16364;52.490;13.326;2023-02-13T09:39:17;11.30;;;6.70;;
29380;SDS011;16364;52.490;13.326;2023-02-13T09:41:42;12.00;;;6.80;;
29380;SDS011;16364;52.490;13.326;2023-02-13T09:44:13;11.87;;;6.97;;
29380;SDS011;16364;52.490;13.326;2023-02-13T09:46:58;13.93;;;7.37;;
29380;SDS011;16364;52.490;13.326;2023-02-13T09:49:25;17.07;;;7.43;;
29380;SDS011;16364;52.490;13.326;2023-02-13T09:51:53;12.60;;;7.63;;
29380;SDS011;16364;52.490;13.326;2023-02-13T09:54:20;20.10;;;9.00;;
29380;SDS011;16364;52.490;13.326;2023-02-13T09:57:06;12.07;;;7.07;;
29380;SDS011;16364;52.490;13.326;2023-02-13T10:04:45;14.00;;;6.93;;
29380;SDS011;16364;52.490;13.326;2023-02-13T10:17:26;11.23;;;7.20;;
29380;SDS011;16364;52.490;13.326;2023-02-13T10:19:53;12.37;;;7.00;;
29380;SDS011;16364;52.490;13.326;2023-02-13T10:22:20;11.33;;;7.40;;
29380;SDS011;16364;52.490;13.326;2023-02-13T10:24:59;14.07;;;7.77;;
29380;SDS011;16364;52.490;13.326;2023-02-13T10:27:31;11.37;;;7.33;;
29380;SDS011;16364;52.490;13.326;2023-02-13T10:29:59;11.50;;;6.93;;
29380;SDS011;16364;52.490;13.326;2023-02-13T10:35:35;10.37;;;6.57;;
29380;SDS011;16364;52.490;13.326;2023-02-13T10:38:00;11.00;;;6.83;;
29380;SDS011;16364;52.490;13.326;2023-02-13T10:40:36;16.50;;;8.70;;
29380;SDS011;16364;52.490;13.326;2023-02-13T10:43:09;13.50;;;7.00;;
29380;SDS011;16364;52.490;13.326;2023-02-13T10:53:31;13.03;;;7.77;;
29380;SDS011;16364;52.490;13.326;2023-02-13T10:56:14;16.80;;;7.10;;
29380;SDS011;16364;52.490;13.326;2023-02-13T10:58:48;13.23;;;8.57;;
29380;SDS011;16364;52.490;13.326;2023-02-13T11:01:24;14.70;;;8.10;;
29380;SDS011;16364;52.490;13.326;2023-02-13T11:04:00;21.27;;;8.53;;
29380;SDS011;16364;52.490;13.326;2023-02-13T11:06:26;13.10;;;7.53;;
29380;SDS011;16364;52.490;13.326;2023-02-13T11:08:51;14.10;;;6.70;;
29380;SDS011;16364;52.490;13.326;2023-02-13T11:11:36;18.80;;;9.87;;
29380;SDS011;16364;52.490;13.326;2023-02-13T11:16:37;26.30;;;8.50;;
29380;SDS011;16364;52.490;13.326;2023-02-13T11:19:03;14.40;;;8.73;;
29380;SDS011;16364;52.490;13.326;2023-02-13T11:21:34;15.70;;;8.70;;
29380;SDS011;16364;52.490;13.326;2023-02-13T11:24:00;13.50;;;7.90;;
29380;SDS011;16364;52.490;13.326;2023-02-13T11:28:58;17.67;;;9.50;;
29380;SDS011;16364;52.490;13.326;2023-02-13T11:31:32;14.23;;;9.00;;
29380;SDS011;16364;52.490;13.326;2023-02-13T11:33:58;13.63;;;8.40;;
29380;SDS011;16364;52.490;13.326;2023-02-13T11:36:28;14.23;;;9.13;;
29380;SDS011;16364;52.490;13.326;2023-02-13T11:39:01;15.80;;;8.93;;
29380;SDS011;16364;52.490;13.326;2023-02-13T11:41:28;13.53;;;9.27;;
29380;SDS011;16364;52.490;13.326;2023-02-13T11:43:55;16.27;;;9.67;;
29380;SDS011;16364;52.490;13.326;2023-02-13T11:46:25;20.33;;;10.10;;
29380;SDS011;16364;52.490;13.326;2023-02-13T11:51:35;13.03;;;9.20;;
29380;SDS011;16364;52.490;13.326;2023-02-13T11:54:01;16.73;;;10.07;;
29380;SDS011;16364;52.490;13.326;2023-02-13T11:56:27;13.93;;;8.90;;
29380;SDS011;16364;52.490;13.326;2023-02-13T11:58:59;18.37;;;11.47;;
29380;SDS011;16364;52.490;13.326;2023-02-13T12:01:25;15.50;;;10.43;;
29380;SDS011;16364;52.490;13.326;2023-02-13T12:04:34;12.47;;;9.10;;
29380;SDS011;16364;52.490;13.326;2023-02-13T12:06:41;17.50;;;9.87;;
29380;SDS011;16364;52.490;13.326;2023-02-13T12:09:21;14.43;;;9.47;;
29380;SDS011;16364;52.490;13.326;2023-02-13T12:11:52;15.97;;;10.80;;
29380;SDS011;16364;52.490;13.326;2023-02-13T12:14:20;17.90;;;10.43;;
29380;SDS011;16364;52.490;13.326;2023-02-13T12:19:24;16.90;;;10.20;;
29380;SDS011;16364;52.490;13.326;2023-02-13T12:21:59;15.60;;;11.17;;
29380;SDS011;16364;52.490;13.326;2023-02-13T12:42:23;19.17;;;12.00;;
29380;SDS011;16364;52.490;13.326;2023-02-13T12:58:38;17.87;;;12.27;;
29380;SDS011;16364;52.490;13.326;2023-02-13T13:18:38;14.77;;;10.77;;
29380;SDS011;16364;52.490;13.326;2023-02-13T13:28:48;17.00;;;11.03;;
29380;SDS011;16364;52.490;13.326;2023-02-13T13:31:14;16.50;;;9.83;;
29380;SDS011;16364;52.490;13.326;2023-02-13T13:33:41;17.20;;;10.27;;
29380;SDS011;16364;52.490;13.326;2023-02-13T13:46:24;17.83;;;11.13;;
29380;SDS011;16364;52.490;13.326;2023-02-13T13:51:28;17.50;;;10.40;;
29380;SDS011;16364;52.490;13.326;2023-02-13T13:59:15;16.00;;;10.97;;
29380;SDS011;16364;52.490;13.326;2023-02-13T14:01:41;19.83;;;12.77;;
29380;SDS011;16364;52.490;13.326;2023-02-13T14:11:50;18.70;;;10.87;;
29380;SDS011;16364;52.490;13.326;2023-02-13T14:16:59;16.50;;;10.33;;
29380;SDS011;16364;52.490;13.326;2023-02-13T14:19:33;15.30;;;10.47;;
29380;SDS011;16364;52.490;13.326;2023-02-13T14:25:02;14.57;;;10.37;;
29380;SDS011;16364;52.490;13.326;2023-02-13T14:29:53;16.23;;;10.63;;
29380;SDS011;16364;52.490;13.326;2023-02-13T14:34:51;19.40;;;13.33;;
29380;SDS011;16364;52.490;13.326;2023-02-13T14:37:18;22.57;;;12.93;;
29380;SDS011;16364;52.490;13.326;2023-02-13T14:42:29;23.90;;;12.33;;
29380;SDS011;16364;52.490;13.326;2023-02-13T14:44:57;16.07;;;10.70;;
29380;SDS011;16364;52.490;13.326;2023-02-13T14:47:30;16.53;;;12.20;;
29380;SDS011;16364;52.490;13.326;2023-02-13T14:49:57;18.37;;;10.93;;
29380;SDS011;16364;52.490;13.326;2023-02-13T14:52:38;16.37;;;12.00;;
29380;SDS011;16364;52.490;13.326;2023-02-13T14:55:18;17.67;;;11.13;;
29380;SDS011;16364;52.490;13.326;2023-02-13T14:57:51;18.13;;;12.33;;
29380;SDS011;16364;52.490;13.326;2023-02-13T15:02:52;22.30;;;11.93;;
29380;SDS011;16364;52.490;13.326;2023-02-13T15:05:19;24.43;;;14.70;;
29380;SDS011;16364;52.490;13.326;2023-02-13T15:12:58;19.13;;;10.50;;
29380;SDS011;16364;52.490;13.326;2023-02-13T15:15:24;18.20;;;10.63;;
29380;SDS011;16364;52.490;13.326;2023-02-13T15:17:51;18.70;;;11.90;;
29380;SDS011;16364;52.490;13.326;2023-02-13T15:20:22;18.50;;;10.37;;
29380;SDS011;16364;52.490;13.326;2023-02-13T15:22:48;25.97;;;12.57;;
29380;SDS011;16364;52.490;13.326;2023-02-13T15:25:35;20.93;;;12.97;;
29380;SDS011;16364;52.490;13.326;2023-02-13T15:28:01;19.00;;;12.73;;
29380;SDS011;16364;52.490;13.326;2023-02-13T15:30:30;22.60;;;11.00;;
29380;SDS011;16364;52.490;13.326;2023-02-13T15:33:00;20.80;;;12.17;;
29380;SDS011;16364;52.490;13.326;2023-02-13T15:37:55;22.30;;;12.07;;
29380;SDS011;16364;52.490;13.326;2023-02-13T15:40:22;20.77;;;12.87;;
29380;SDS011;16364;52.490;13.326;2023-02-13T15:42:48;21.63;;;12.60;;
29380;SDS011;16364;52.490;13.326;2023-02-13T15:45:15;21.73;;;13.20;;
29380;SDS011;16364;52.490;13.326;2023-02-13T15:47:41;23.17;;;14.30;;
29380;SDS011;16364;52.490;13.326;2023-02-13T15:50:14;19.40;;;11.40;;
29380;SDS011;16364;52.490;13.326;2023-02-13T15:52:40;16.23;;;10.90;;
29380;SDS011;16364;52.490;13.326;2023-02-13T15:55:13;19.73;;;12.67;;
29380;SDS011;16364;52.490;13.326;2023-02-13T15:57:41;19.73;;;12.10;;
29380;SDS011;16364;52.490;13.326;2023-02-13T16:00:08;17.67;;;11.10;;
29380;SDS011;16364;52.490;13.326;2023-02-13T16:02:42;19.73;;;11.80;;
29380;SDS011;16364;52.490;13.326;2023-02-13T16:05:10;17.30;;;10.90;;
29380;SDS011;16364;52.490;13.326;2023-02-13T16:07:46;22.00;;;13.53;;
29380;SDS011;16364;52.490;13.326;2023-02-13T16:10:16;18.17;;;12.23;;
29380;SDS011;16364;52.490;13.326;2023-02-13T16:12:45;18.13;;;11.63;;
29380;SDS011;16364;52.490;13.326;2023-02-13T16:15:13;28.70;;;13.90;;
29380;SDS011;16364;52.490;13.326;2023-02-13T16:17:39;20.90;;;13.90;;
29380;SDS011;16364;52.490;13.326;2023-02-13T16:22:42;16.37;;;12.30;;
29380;SDS011;16364;52.490;13.326;2023-02-13T16:27:39;19.93;;;12.40;;
29380;SDS011;16364;52.490;13.326;2023-02-13T16:30:06;23.07;;;12.77;;
29380;SDS011;16364;52.490;13.326;2023-02-13T16:32:33;17.80;;;10.73;;
29380;SDS011;16364;52.490;13.326;2023-02-13T16:37:52;18.30;;;11.97;;
29380;SDS011;16364;52.490;13.326;2023-02-13T16:45:41;21.00;;;13.17;;
29380;SDS011;16364;52.490;13.326;2023-02-13T16:48:11;23.97;;;13.67;;
29380;SDS011;16364;52.490;13.326;2023-02-13T16:50:37;18.50;;;13.27;;
29380;SDS011;16364;52.490;13.326;2023-02-13T16:53:02;24.83;;;14.50;;
29380;SDS011;16364;52.490;13.326;2023-02-13T16:55:28;22.10;;;13.23;;
29380;SDS011;16364;52.490;13.326;2023-02-13T16:57:59;19.03;;;13.53;;
29380;SDS011;16364;52.490;13.326;2023-02-13T17:00:25;27.40;;;12.70;;
29380;SDS011;16364;52.490;13.326;2023-02-13T17:02:52;24.20;;;12.20;;
29380;SDS011;16364;52.490;13.326;2023-02-13T17:05:18;24.37;;;13.50;;
29380;SDS011;16364;52.490;13.326;2023-02-13T17:07:48;16.67;;;11.93;;
29380;SDS011;16364;52.490;13.326;2023-02-13T17:12:43;18.87;;;12.17;;
29380;SDS011;16364;52.490;13.326;2023-02-13T17:15:09;18.87;;;12.40;;
29380;SDS011;16364;52.490;13.326;2023-02-13T17:17:36;21.20;;;11.77;;
29380;SDS011;16364;52.490;13.326;2023-02-13T17:20:01;23.37;;;11.70;;
29380;SDS011;16364;52.490;13.326;2023-02-13T17:22:38;18.27;;;11.70;;
29380;SDS011;16364;52.490;13.326;2023-02-13T17:25:06;22.93;;;11.90;;
29380;SDS011;16364;52.490;13.326;2023-02-13T17:27:31;24.57;;;13.80;;
29380;SDS011;16364;52.490;13.326;2023-02-13T17:29:57;23.00;;;13.40;;
29380;SDS011;16364;52.490;13.326;2023-02-13T17:32:23;20.80;;;12.73;;
29380;SDS011;16364;52.490;13.326;2023-02-13T17:34:48;21.53;;;12.97;;
29380;SDS011;16364;52.490;13.326;2023-02-13T17:37:15;23.07;;;12.23;;
29380;SDS011;16364;52.490;13.326;2023-02-13T17:39:41;20.33;;;11.73;;